createdAt,value
2017-08-25T00:03:10.574Z,3.33
2017-08-25T00:07:57.216Z,3.10
2017-08-25T00:12:43.842Z,3.73
2017-08-25T00:17:30.533Z,3.77
2017-08-25T00:22:17.550Z,3.47
2017-08-25T00:27:04.207Z,3.57
2017-08-25T00:31:50.915Z,3.90
2017-08-25T00:36:37.601Z,3.53
2017-08-25T00:41:24.647Z,3.70
2017-08-25T00:46:11.344Z,3.37
2017-08-25T00:50:58.059Z,3.40
2017-08-25T00:55:44.738Z,3.80
2017-08-25T01:00:31.495Z,3.97
2017-08-25T01:05:18.219Z,3.63
2017-08-25T01:10:05.279Z,3.23
2017-08-25T01:14:51.914Z,3.37
2017-08-25T01:19:38.563Z,4.10
2017-08-25T01:24:25.206Z,4.80
2017-08-25T01:29:11.871Z,3.77
2017-08-25T01:33:58.780Z,4.57
2017-08-25T01:38:45.401Z,5.13
2017-08-25T01:43:32.050Z,4.97
2017-08-25T01:48:19.456Z,5.20
2017-08-25T01:53:06.510Z,5.07
2017-08-25T01:57:53.292Z,5.37
2017-08-25T02:02:40.170Z,5.43
2017-08-25T02:07:26.806Z,5.47
2017-08-25T02:12:13.444Z,5.97
2017-08-25T02:17:00.101Z,6.10
2017-08-25T02:21:53.770Z,5.67
2017-08-25T02:26:40.443Z,5.50
2017-08-25T02:31:27.372Z,6.73
2017-08-25T02:36:14.000Z,5.93
2017-08-25T02:41:00.638Z,5.10
2017-08-25T02:45:47.321Z,5.50
2017-08-25T02:50:34.348Z,7.13
2017-08-25T02:55:20.975Z,6.00
2017-08-25T03:00:07.753Z,5.80
2017-08-25T03:04:54.547Z,5.77
2017-08-25T03:09:41.314Z,6.00
2017-08-25T03:14:28.389Z,7.50
2017-08-25T03:19:15.310Z,5.40
2017-08-25T03:24:01.914Z,6.63
2017-08-25T03:28:48.539Z,6.50
2017-08-25T03:33:35.218Z,6.10
2017-08-25T03:38:21.870Z,6.00
2017-08-25T03:43:08.804Z,5.73
2017-08-25T03:47:55.483Z,6.17
2017-08-25T03:52:42.150Z,6.90
2017-08-25T03:57:28.808Z,7.03
2017-08-25T04:02:15.444Z,7.60
2017-08-25T04:07:02.196Z,6.73
2017-08-25T04:11:48.828Z,7.23
2017-08-25T04:16:35.788Z,8.10
2017-08-25T04:21:22.405Z,7.30
2017-08-25T04:26:09.073Z,8.80
2017-08-25T04:30:55.689Z,9.10
2017-08-25T04:35:42.336Z,8.00
2017-08-25T04:40:29.027Z,8.60
2017-08-25T04:45:15.695Z,7.67
2017-08-25T04:50:02.396Z,8.40
2017-08-25T04:54:49.036Z,9.77
2017-08-25T04:59:35.855Z,8.90
2017-08-25T05:04:22.582Z,7.60
2017-08-25T05:09:09.359Z,8.47
2017-08-25T05:13:56.084Z,7.90
2017-08-25T05:18:42.769Z,8.30
2017-08-25T05:23:29.415Z,8.33
2017-08-25T05:28:16.353Z,9.90
2017-08-25T05:33:03.174Z,9.83
2017-08-25T05:37:49.807Z,10.20
2017-08-25T05:42:36.454Z,10.90
2017-08-25T05:47:23.092Z,11.80
2017-08-25T05:52:09.721Z,12.13
2017-08-25T05:56:56.393Z,11.10
2017-08-25T06:01:43.519Z,10.23
2017-08-25T06:06:30.145Z,10.37
2017-08-25T06:11:16.806Z,9.87
2017-08-25T06:16:03.413Z,10.93
2017-08-25T06:20:50.067Z,10.10
2017-08-25T06:25:36.713Z,9.70
2017-08-25T06:30:23.738Z,10.20
2017-08-25T06:35:10.363Z,10.17
2017-08-25T06:39:57.065Z,8.37
2017-08-25T06:44:43.833Z,9.57
2017-08-25T06:49:30.637Z,6.90
2017-08-25T06:54:17.269Z,7.47
2017-08-25T06:59:03.932Z,7.60
2017-08-25T07:03:50.925Z,7.30
2017-08-25T07:08:37.609Z,6.80
2017-08-25T07:13:24.303Z,5.57
2017-08-25T07:18:11.012Z,4.60
2017-08-25T07:22:57.702Z,3.93
2017-08-25T07:27:44.325Z,4.20
2017-08-25T07:32:30.994Z,5.00
2017-08-25T07:37:17.849Z,3.87
2017-08-25T07:42:04.481Z,3.80
2017-08-25T07:46:51.153Z,4.57
2017-08-25T07:51:37.773Z,3.77
2017-08-25T07:56:24.524Z,3.87
2017-08-25T08:01:11.192Z,6.20
2017-08-25T08:05:58.619Z,3.90
2017-08-25T08:10:45.302Z,7.00
2017-08-25T08:15:32.022Z,5.60
2017-08-25T08:20:18.742Z,4.63
2017-08-25T08:25:05.471Z,3.73
2017-08-25T08:29:52.166Z,3.73
2017-08-25T08:34:38.818Z,4.40
2017-08-25T08:39:25.614Z,3.70
2017-08-25T08:44:12.629Z,3.13
2017-08-25T08:48:59.344Z,3.43
2017-08-25T08:53:46.005Z,3.50
2017-08-25T08:58:32.636Z,3.10
2017-08-25T09:03:19.276Z,3.40
2017-08-25T09:08:06.205Z,3.30
2017-08-25T09:12:52.886Z,3.30
2017-08-25T09:17:39.572Z,3.70
2017-08-25T09:22:26.425Z,4.27
2017-08-25T09:27:13.077Z,3.00
2017-08-25T09:31:59.748Z,3.77
2017-08-25T09:36:46.381Z,3.57
2017-08-25T09:41:33.360Z,3.20
2017-08-25T09:46:20.016Z,3.27
2017-08-25T09:51:06.723Z,3.90
2017-08-25T09:55:53.611Z,4.30
2017-08-25T10:00:40.289Z,4.57
2017-08-25T10:05:27.037Z,2.80
2017-08-25T10:10:13.772Z,3.30
2017-08-25T10:15:00.439Z,2.60
2017-08-25T10:19:47.306Z,2.73
2017-08-25T10:24:34.109Z,2.60
2017-08-25T10:29:20.776Z,2.87
2017-08-25T10:39:54.860Z,2.60
2017-08-25T10:44:47.379Z,2.90
2017-08-25T10:49:34.132Z,2.53
2017-08-25T10:54:21.177Z,2.53
2017-08-25T10:59:07.847Z,3.10
2017-08-25T11:03:54.530Z,3.40
2017-08-25T11:08:41.297Z,2.83
2017-08-25T11:13:28.012Z,4.07
2017-08-25T11:18:14.759Z,3.70
2017-08-25T11:23:01.500Z,3.50
2017-08-25T11:27:48.534Z,3.33
2017-08-25T11:32:35.206Z,3.43
2017-08-25T11:37:21.891Z,3.10
2017-08-25T11:42:08.607Z,3.40
2017-08-25T11:46:55.347Z,3.17
2017-08-25T11:51:41.993Z,4.03
2017-08-25T11:56:28.962Z,3.10
2017-08-25T12:01:15.668Z,3.27
2017-08-25T12:06:02.335Z,3.93
2017-08-25T12:10:48.976Z,3.33
2017-08-25T12:15:35.689Z,3.67
2017-08-25T12:20:22.403Z,3.87
2017-08-25T12:25:09.994Z,4.03
2017-08-25T12:29:56.630Z,3.30
2017-08-25T12:34:43.571Z,3.83
2017-08-25T12:39:30.265Z,2.77
2017-08-25T12:44:17.095Z,3.17
2017-08-25T12:49:03.738Z,3.00
2017-08-25T12:53:50.372Z,3.43
2017-08-25T12:58:37.367Z,3.73
2017-08-25T13:03:24.017Z,3.60
2017-08-25T13:08:10.667Z,3.40
2017-08-25T13:12:57.288Z,3.87
2017-08-25T13:17:43.933Z,3.60
2017-08-25T13:22:30.571Z,3.53
2017-08-25T13:27:17.309Z,3.53
2017-08-25T13:32:04.113Z,3.83
2017-08-25T13:36:51.071Z,3.70
2017-08-25T13:41:37.724Z,3.43
2017-08-25T13:46:24.392Z,3.53
2017-08-25T13:51:11.321Z,3.10
2017-08-25T13:55:57.976Z,3.10
2017-08-25T14:00:44.803Z,3.90
2017-08-25T14:05:31.428Z,3.43
2017-08-25T14:10:18.417Z,3.50
2017-08-25T14:15:05.095Z,3.43
2017-08-25T14:19:51.721Z,3.23
2017-08-25T14:24:38.357Z,4.03
2017-08-25T14:29:25.005Z,3.87
2017-08-25T14:34:12.017Z,3.60
2017-08-25T14:38:59.151Z,3.80
2017-08-25T14:43:45.908Z,4.20
2017-08-25T14:48:32.608Z,4.30
2017-08-25T14:53:19.252Z,4.67
2017-08-25T14:58:05.889Z,3.83
2017-08-25T15:02:52.565Z,3.40
2017-08-25T15:07:39.599Z,3.90
2017-08-25T15:12:26.194Z,3.63
2017-08-25T15:17:12.826Z,3.63
2017-08-25T15:21:59.457Z,3.70
2017-08-25T15:26:46.094Z,4.00
2017-08-25T15:31:32.758Z,3.60
2017-08-25T15:36:19.437Z,3.93
2017-08-25T15:41:06.058Z,3.27
2017-08-25T15:45:52.701Z,3.97
2017-08-25T15:50:39.368Z,4.00
2017-08-25T15:55:26.028Z,3.30
2017-08-25T16:00:12.661Z,4.20
2017-08-25T16:04:59.274Z,4.30
2017-08-25T16:09:45.951Z,3.67
2017-08-25T16:14:32.921Z,4.07
2017-08-25T16:19:19.524Z,4.40
2017-08-25T16:24:06.145Z,4.50
2017-08-25T16:28:52.834Z,4.13
2017-08-25T16:33:39.463Z,4.40
2017-08-25T16:38:26.111Z,3.70
2017-08-25T16:43:12.807Z,4.00
2017-08-25T16:47:59.416Z,4.40
2017-08-25T16:52:46.296Z,3.67
2017-08-25T16:57:32.923Z,4.73
2017-08-25T17:02:19.535Z,4.87
2017-08-25T17:07:06.218Z,4.60
2017-08-25T17:11:52.872Z,4.83
2017-08-25T17:16:39.537Z,4.47
2017-08-25T17:21:26.586Z,4.80
2017-08-25T17:26:13.353Z,4.70
2017-08-25T17:31:00.161Z,4.90
2017-08-25T17:35:46.903Z,4.47
2017-08-25T17:40:33.682Z,4.57
2017-08-25T17:45:20.769Z,5.40
2017-08-25T17:50:07.433Z,5.33
2017-08-25T17:54:54.135Z,5.80
2017-08-25T17:59:40.921Z,5.80
2017-08-25T18:04:27.566Z,5.77
2017-08-25T18:09:14.220Z,5.23
2017-08-25T18:14:00.838Z,5.23
2017-08-25T18:18:48.637Z,5.27
2017-08-25T18:23:35.407Z,4.83
2017-08-25T18:28:22.167Z,6.40
2017-08-25T18:33:08.820Z,6.13
2017-08-25T18:37:55.562Z,6.00
2017-08-25T18:42:42.231Z,5.77
2017-08-25T18:47:28.865Z,5.90
2017-08-25T18:52:15.505Z,6.20
2017-08-25T18:57:02.124Z,6.67
2017-08-25T19:01:48.783Z,6.53
2017-08-25T19:06:35.457Z,7.27
2017-08-25T19:11:22.130Z,6.43
2017-08-25T19:16:08.837Z,7.80
2017-08-25T19:20:55.778Z,7.23
2017-08-25T19:25:42.430Z,6.90
2017-08-25T19:30:29.177Z,7.67
2017-08-25T19:35:15.875Z,8.47
2017-08-25T19:40:02.614Z,6.67
2017-08-25T19:44:49.381Z,7.63
2017-08-25T19:49:36.328Z,8.90
2017-08-25T19:54:23.003Z,8.83
2017-08-25T19:59:09.710Z,9.10
2017-08-25T20:03:56.495Z,9.07
2017-08-25T20:08:43.170Z,9.47
2017-08-25T20:13:30.047Z,8.57
2017-08-25T20:18:16.703Z,9.10
2017-08-25T20:23:03.393Z,8.90
2017-08-25T20:27:51.115Z,8.30
2017-08-25T20:32:37.778Z,8.20
2017-08-25T20:37:24.446Z,8.63
2017-08-25T20:42:11.178Z,8.80
2017-08-25T20:46:57.945Z,8.87
2017-08-25T20:51:44.636Z,8.90
2017-08-25T20:56:31.378Z,9.20
2017-08-25T21:01:18.458Z,9.07
2017-08-25T21:06:05.431Z,9.00
2017-08-25T21:10:52.110Z,10.10
2017-08-25T21:15:38.761Z,9.13
2017-08-25T21:20:25.421Z,8.73
2017-08-25T21:25:12.121Z,8.30
2017-08-25T21:29:58.816Z,8.70
2017-08-25T21:34:45.859Z,9.47
2017-08-25T21:39:32.488Z,9.57
2017-08-25T21:44:19.187Z,8.50
2017-08-25T21:49:05.874Z,8.67
2017-08-25T21:53:52.542Z,9.47
2017-08-25T21:58:39.223Z,8.80
2017-08-25T22:03:25.890Z,8.20
2017-08-25T22:08:12.898Z,8.43
2017-08-25T22:12:59.658Z,9.97
2017-08-25T22:17:46.375Z,8.70
2017-08-25T22:22:33.059Z,9.03
2017-08-25T22:27:19.752Z,8.40
2017-08-25T22:32:06.404Z,8.83
2017-08-25T22:36:53.440Z,9.67
2017-08-25T22:41:40.243Z,9.60
2017-08-25T22:46:26.918Z,9.10
2017-08-25T22:51:13.630Z,9.20
2017-08-25T22:56:00.270Z,9.40
2017-08-25T23:00:46.907Z,8.43
2017-08-25T23:05:33.556Z,8.80
2017-08-25T23:10:20.259Z,9.13
2017-08-25T23:15:06.934Z,8.87
2017-08-25T23:19:53.602Z,11.03
2017-08-25T23:24:40.258Z,10.40
2017-08-25T23:29:26.938Z,10.43
2017-08-25T23:34:13.904Z,9.23
2017-08-25T23:39:00.554Z,9.97
2017-08-25T23:43:47.261Z,10.30
2017-08-25T23:48:33.936Z,11.30
2017-08-25T23:53:20.569Z,10.83
2017-08-25T23:58:07.215Z,11.60
